createdAt,value
2018-06-11T00:00:16.325Z,18.50
2018-06-11T00:02:44.640Z,18.40
2018-06-11T00:05:12.944Z,18.40
2018-06-11T00:07:41.258Z,18.30
2018-06-11T00:10:09.590Z,18.20
2018-06-11T00:12:37.919Z,18.20
2018-06-11T00:15:06.249Z,18.10
2018-06-11T00:17:34.566Z,18.00
2018-06-11T00:20:02.925Z,18.00
2018-06-11T00:22:31.255Z,17.90
2018-06-11T00:24:59.553Z,17.90
2018-06-11T00:27:27.864Z,17.90
2018-06-11T00:29:56.183Z,17.80
2018-06-11T00:32:24.509Z,17.80
2018-06-11T00:34:52.800Z,17.90
2018-06-11T00:37:21.114Z,17.90
2018-06-11T00:39:49.454Z,17.90
2018-06-11T00:42:17.765Z,17.90
2018-06-11T00:44:46.295Z,18.00
2018-06-11T00:47:14.617Z,18.00
2018-06-11T00:49:42.924Z,18.10
2018-06-11T00:52:11.253Z,18.00
2018-06-11T00:54:39.549Z,17.90
2018-06-11T00:57:07.894Z,17.90
2018-06-11T00:59:36.198Z,18.00
2018-06-11T01:02:04.586Z,18.00
2018-06-11T01:04:32.885Z,18.00
2018-06-11T01:07:01.209Z,18.00
2018-06-11T01:09:29.529Z,18.00
2018-06-11T01:11:57.831Z,18.00
2018-06-11T01:14:26.189Z,18.00
2018-06-11T01:16:54.492Z,17.90
2018-06-11T01:19:22.866Z,17.90
2018-06-11T01:21:51.172Z,17.90
2018-06-11T01:24:19.509Z,17.90
2018-06-11T01:26:47.809Z,17.90
2018-06-11T01:29:16.132Z,17.90
2018-06-11T01:31:44.429Z,17.90
2018-06-11T01:34:12.749Z,17.80
2018-06-11T01:36:41.048Z,17.80
2018-06-11T01:39:09.375Z,17.70
2018-06-11T01:41:37.681Z,17.80
2018-06-11T01:44:06.036Z,17.70
2018-06-11T01:46:34.329Z,17.70
2018-06-11T01:49:02.676Z,17.70
2018-06-11T01:51:30.973Z,17.80
2018-06-11T01:53:59.283Z,17.90
2018-06-11T01:56:27.593Z,17.90
2018-06-11T01:58:55.933Z,18.00
2018-06-11T02:01:24.234Z,18.00
2018-06-11T02:03:52.556Z,18.00
2018-06-11T02:06:20.861Z,18.00
2018-06-11T02:08:49.213Z,18.00
2018-06-11T02:11:17.550Z,18.00
2018-06-11T02:13:45.869Z,17.90
2018-06-11T02:16:14.185Z,17.90
2018-06-11T02:18:42.497Z,17.90
2018-06-11T02:21:10.833Z,17.90
2018-06-11T02:23:39.133Z,17.70
2018-06-11T02:26:07.484Z,17.60
2018-06-11T02:28:35.813Z,17.50
2018-06-11T02:31:04.142Z,17.40
2018-06-11T02:33:32.441Z,17.30
2018-06-11T02:36:00.777Z,17.20
2018-06-11T02:38:29.101Z,17.20
2018-06-11T02:40:57.443Z,17.20
2018-06-11T02:43:25.777Z,17.20
2018-06-11T02:45:54.118Z,17.20
2018-06-11T02:48:22.446Z,17.20
2018-06-11T02:50:50.805Z,17.10
2018-06-11T02:53:19.125Z,17.00
2018-06-11T02:55:47.479Z,17.00
2018-06-11T02:58:15.782Z,17.00
2018-06-11T03:00:44.111Z,17.00
2018-06-11T03:03:12.429Z,17.10
2018-06-11T03:05:40.741Z,17.20
2018-06-11T03:08:09.037Z,17.20
2018-06-11T03:10:37.381Z,17.20
2018-06-11T03:13:05.989Z,17.30
2018-06-11T03:15:34.404Z,17.20
2018-06-11T03:18:02.645Z,17.10
2018-06-11T03:20:30.982Z,17.20
2018-06-11T03:22:59.286Z,17.10
2018-06-11T03:25:27.634Z,17.10
2018-06-11T03:27:55.937Z,17.10
2018-06-11T03:30:24.284Z,17.10
2018-06-11T03:32:52.581Z,17.00
2018-06-11T03:35:21.009Z,16.80
2018-06-11T03:37:49.353Z,16.80
2018-06-11T03:40:17.677Z,16.70
2018-06-11T03:42:45.980Z,16.60
2018-06-11T03:45:14.313Z,16.60
2018-06-11T03:47:42.641Z,16.60
2018-06-11T03:50:10.962Z,16.60
2018-06-11T03:52:39.258Z,16.70
2018-06-11T03:55:07.582Z,16.80
2018-06-11T03:57:35.893Z,16.70
2018-06-11T04:00:04.289Z,16.70
2018-06-11T04:02:32.604Z,16.70
2018-06-11T04:05:00.901Z,16.70
2018-06-11T04:07:29.247Z,16.60
2018-06-11T04:09:57.577Z,16.60
2018-06-11T04:12:25.895Z,16.70
2018-06-11T04:14:54.218Z,16.80
2018-06-11T04:17:22.536Z,16.80
2018-06-11T04:19:50.857Z,16.90
2018-06-11T04:22:19.184Z,17.00
2018-06-11T04:24:47.578Z,17.10
2018-06-11T04:27:15.893Z,17.10
2018-06-11T04:29:44.196Z,17.10
2018-06-11T04:32:12.530Z,17.20
2018-06-11T04:34:40.821Z,17.10
2018-06-11T04:37:09.153Z,17.10
2018-06-11T04:39:37.524Z,17.20
2018-06-11T04:42:05.833Z,17.30
2018-06-11T04:44:34.149Z,17.30
2018-06-11T04:47:02.465Z,17.20
2018-06-11T04:49:30.772Z,17.20
2018-06-11T04:51:59.093Z,17.20
2018-06-11T04:54:27.394Z,17.30
2018-06-11T04:56:55.752Z,17.40
2018-06-11T04:59:24.069Z,17.50
2018-06-11T05:01:52.507Z,17.50
2018-06-11T05:04:20.853Z,17.60
2018-06-11T05:06:50.314Z,17.70
2018-06-11T05:09:19.172Z,17.90
2018-06-11T05:11:48.700Z,18.00
2018-06-11T05:14:17.537Z,18.00
2018-06-11T05:16:47.195Z,18.20
2018-06-11T05:19:16.438Z,18.20
2018-06-11T05:21:46.054Z,18.40
2018-06-11T05:24:14.412Z,18.60
2018-06-11T05:26:44.364Z,18.70
2018-06-11T05:29:13.368Z,18.90
2018-06-11T05:31:42.150Z,19.20
2018-06-11T05:34:10.485Z,19.40
2018-06-11T05:36:39.672Z,19.80
2018-06-11T05:39:10.522Z,20.00
2018-06-11T05:41:39.510Z,20.10
2018-06-11T05:46:37.525Z,20.30
2018-06-11T05:49:06.980Z,20.30
2018-06-11T05:51:36.173Z,20.50
2018-06-11T05:54:05.304Z,20.60
2018-06-11T05:56:34.067Z,21.00
2018-06-11T05:59:03.763Z,21.00
2018-06-11T06:01:32.592Z,21.00
2018-06-11T06:04:02.509Z,20.90
2018-06-11T06:06:31.432Z,21.00
2018-06-11T06:09:01.934Z,21.00
2018-06-11T06:11:30.923Z,21.10
2018-06-11T06:14:00.160Z,20.90
2018-06-11T06:18:57.505Z,20.90
2018-06-11T06:21:26.665Z,20.70
2018-06-11T06:23:56.168Z,20.50
2018-06-11T06:26:26.213Z,20.50
2018-06-11T06:28:56.773Z,20.70
2018-06-11T06:31:25.704Z,20.60
2018-06-11T06:33:54.613Z,20.60
2018-06-11T06:36:23.921Z,20.70
2018-06-11T06:38:53.636Z,20.80
2018-06-11T06:41:22.926Z,20.90
2018-06-11T06:43:51.905Z,21.00
2018-06-11T06:46:27.187Z,21.00
2018-06-11T06:48:56.175Z,21.00
2018-06-11T06:51:25.474Z,20.80
2018-06-11T06:53:53.806Z,20.70
2018-06-11T06:56:23.726Z,20.80
2018-06-11T06:58:53.536Z,20.70
2018-06-11T07:01:23.118Z,20.90
2018-06-11T07:03:52.521Z,21.10
2018-06-11T07:06:22.162Z,21.30
2018-06-11T07:08:51.089Z,21.20
2018-06-11T07:11:19.971Z,21.60
2018-06-11T07:13:48.575Z,21.50
2018-06-11T07:16:17.465Z,21.80
2018-06-11T07:18:48.393Z,21.90
2018-06-11T07:21:18.831Z,22.00
2018-06-11T07:23:47.693Z,22.30
2018-06-11T07:26:16.616Z,22.00
2018-06-11T07:28:47.219Z,21.70
2018-06-11T07:31:15.645Z,21.80
2018-06-11T07:33:43.917Z,21.70
2018-06-11T07:41:11.604Z,22.30
2018-06-11T07:43:40.506Z,22.60
2018-06-11T07:46:09.583Z,22.70
2018-06-11T07:48:40.513Z,22.60
2018-06-11T07:51:09.331Z,22.80
2018-06-11T07:53:37.646Z,22.70
2018-06-11T07:56:05.994Z,22.50
2018-06-11T07:58:36.415Z,22.60
2018-06-11T08:01:10.254Z,22.60
2018-06-11T08:03:42.070Z,22.90
2018-06-11T08:06:10.627Z,23.10
2018-06-11T08:08:44.661Z,23.20
2018-06-11T08:11:14.918Z,23.40
2018-06-11T08:13:43.915Z,23.30
2018-06-11T08:16:13.671Z,23.20
2018-06-11T08:18:42.923Z,23.30
2018-06-11T08:21:12.495Z,23.50
2018-06-11T08:23:40.796Z,24.20
2018-06-11T08:26:10.944Z,24.70
2018-06-11T08:28:39.752Z,24.90
2018-06-11T08:31:09.409Z,25.00
2018-06-11T08:33:39.062Z,25.30
2018-06-11T09:52:10.620Z,25.40
2018-06-11T09:54:39.482Z,24.90
2018-06-11T09:57:08.501Z,24.50
2018-06-11T09:59:37.341Z,24.20
2018-06-11T10:02:07.010Z,24.60
2018-06-11T10:04:36.320Z,25.10
2018-06-11T10:07:05.069Z,25.30
2018-06-11T10:09:36.140Z,26.10
2018-06-11T10:12:04.971Z,26.00
2018-06-11T10:14:33.901Z,25.90
2018-06-11T10:17:03.728Z,25.60
2018-06-11T10:19:32.705Z,26.00
2018-06-11T10:22:01.923Z,26.30
2018-06-11T10:24:30.535Z,25.80
2018-06-11T10:26:59.251Z,25.50
2018-06-11T10:29:28.907Z,25.40
2018-06-11T10:34:27.061Z,25.20
2018-06-11T10:36:56.695Z,24.80
2018-06-11T10:39:25.496Z,24.60
2018-06-11T10:41:54.771Z,24.40
2018-06-11T10:44:23.070Z,24.60
2018-06-11T10:46:51.941Z,24.30
2018-06-11T10:49:21.811Z,23.90
2018-06-11T10:51:51.444Z,24.20
2018-06-11T10:54:22.672Z,24.30
2018-06-11T10:56:51.299Z,24.70
2018-06-11T10:59:21.553Z,25.40
2018-06-11T11:01:51.824Z,25.80
2018-06-11T11:04:22.186Z,26.30
2018-06-11T11:06:51.149Z,26.00
2018-06-11T11:09:20.546Z,26.00
2018-06-11T11:11:49.950Z,25.70
2018-06-11T11:14:18.940Z,25.10
2018-06-11T11:16:47.738Z,24.70
2018-06-11T11:19:17.369Z,24.80
2018-06-11T11:21:46.075Z,25.10
2018-06-11T11:24:14.443Z,25.10
2018-06-11T11:26:43.197Z,25.20
2018-06-11T11:29:12.041Z,25.50
2018-06-11T11:31:41.475Z,25.50
2018-06-11T11:34:10.297Z,25.00
2018-06-11T11:36:40.419Z,24.80
2018-06-11T11:39:10.156Z,24.80
2018-06-11T11:41:39.868Z,24.80
2018-06-11T11:44:09.970Z,24.70
2018-06-11T11:46:39.736Z,24.90
2018-06-11T11:49:12.121Z,24.90
2018-06-11T11:51:42.347Z,24.80
2018-06-11T11:54:11.993Z,24.80
2018-06-11T11:56:43.775Z,24.80
2018-06-11T11:59:13.521Z,24.90
2018-06-11T12:01:42.857Z,24.80
2018-06-11T12:04:12.951Z,24.70
2018-06-11T12:06:43.304Z,24.30
2018-06-11T12:09:12.294Z,24.10
2018-06-11T12:11:41.988Z,24.10
2018-06-11T12:14:10.992Z,24.00
2018-06-11T12:16:39.917Z,24.00
2018-06-11T12:21:38.328Z,23.50
2018-06-11T12:24:07.630Z,23.40
2018-06-11T12:26:36.423Z,23.20
2018-06-11T12:29:05.275Z,22.90
2018-06-11T12:31:35.155Z,22.90
2018-06-11T12:34:05.391Z,22.60
2018-06-11T12:36:34.854Z,22.20
2018-06-11T12:39:07.078Z,21.90
2018-06-11T12:41:37.197Z,21.20
2018-06-11T12:44:06.048Z,20.80
2018-06-11T12:46:36.456Z,20.60
2018-06-11T12:49:06.565Z,20.50
2018-06-11T12:51:34.897Z,20.40
2018-06-11T12:54:04.624Z,20.40
2018-06-11T12:56:33.690Z,20.30
2018-06-11T12:59:03.789Z,20.20
2018-06-11T13:01:35.757Z,20.10
2018-06-11T13:04:05.658Z,20.10
2018-06-11T13:06:36.023Z,20.10
2018-06-11T13:09:08.753Z,20.10
2018-06-11T13:11:37.932Z,20.00
2018-06-11T13:14:06.339Z,19.50
2018-06-11T13:16:35.589Z,19.10
2018-06-11T13:19:06.291Z,18.60
2018-06-11T13:21:35.798Z,18.50
2018-06-11T13:24:05.250Z,18.30
2018-06-11T13:26:34.450Z,18.20
2018-06-11T13:29:03.155Z,18.10
2018-06-11T13:31:31.784Z,18.10
2018-06-11T13:34:00.404Z,18.00
2018-06-11T13:36:30.066Z,18.00
2018-06-11T13:38:59.179Z,17.90
2018-06-11T13:41:32.161Z,17.80
2018-06-11T13:44:00.493Z,17.90
2018-06-11T13:46:29.581Z,17.90
2018-06-11T13:48:58.809Z,17.90
2018-06-11T13:51:27.944Z,17.90
2018-06-11T13:56:25.681Z,18.00
2018-06-11T13:58:54.353Z,18.10
2018-06-11T14:01:23.245Z,18.00
2018-06-11T14:03:53.533Z,17.90
2018-06-11T14:06:22.473Z,17.80
2018-06-11T14:08:52.775Z,17.90
2018-06-11T14:11:21.673Z,18.00
2018-06-11T14:13:50.084Z,18.00
2018-06-11T14:16:20.152Z,18.00
2018-06-11T14:18:48.884Z,18.00
2018-06-11T14:21:17.614Z,18.10
2018-06-11T14:23:45.916Z,18.20
2018-06-11T14:26:15.909Z,18.10
2018-06-11T14:28:44.521Z,18.10
2018-06-11T14:31:13.964Z,18.00
2018-06-11T14:33:42.533Z,18.10
2018-06-11T14:36:11.282Z,18.10
2018-06-11T14:38:41.653Z,18.20
2018-06-11T14:41:11.032Z,18.20
2018-06-11T14:43:41.514Z,18.30
2018-06-11T14:46:10.958Z,18.40
2018-06-11T14:48:39.711Z,18.40
2018-06-11T14:51:08.521Z,18.30
2018-06-11T14:53:36.889Z,18.30
2018-06-11T14:56:06.553Z,18.30
2018-06-11T14:58:35.191Z,18.30
2018-06-11T15:01:04.841Z,18.30
2018-06-11T15:03:33.169Z,18.30
2018-06-11T15:06:03.302Z,18.30
2018-06-11T15:08:32.419Z,18.30
2018-06-11T15:11:01.485Z,18.30
2018-06-11T15:13:29.824Z,18.30
2018-06-11T15:15:58.137Z,18.40
2018-06-11T15:18:26.433Z,18.40
2018-06-11T15:20:54.769Z,18.30
2018-06-11T15:23:23.073Z,18.30
2018-06-11T15:25:51.394Z,18.30
2018-06-11T15:28:19.689Z,18.20
2018-06-11T15:30:48.008Z,18.20
2018-06-11T15:33:16.324Z,18.20
2018-06-11T15:35:44.661Z,18.20
2018-06-11T15:38:12.958Z,18.20
2018-06-11T15:40:41.305Z,18.20
2018-06-11T15:43:09.649Z,18.10
2018-06-11T15:45:37.950Z,18.20
2018-06-11T15:48:06.278Z,18.20
2018-06-11T15:50:34.580Z,18.20
2018-06-11T15:53:02.902Z,18.10
2018-06-11T15:55:31.199Z,18.00
2018-06-11T15:57:59.522Z,18.00
2018-06-11T16:00:27.823Z,18.00
2018-06-11T16:02:56.146Z,18.00
2018-06-11T16:05:24.464Z,18.00
2018-06-11T16:07:52.798Z,18.00
2018-06-11T16:10:21.113Z,18.00
2018-06-11T16:12:49.433Z,18.00
2018-06-11T16:15:17.753Z,18.00
2018-06-11T16:17:46.071Z,18.10
2018-06-11T16:20:14.409Z,18.10
2018-06-11T16:22:42.736Z,18.10
2018-06-11T16:25:11.043Z,18.30
2018-06-11T16:27:39.406Z,18.30
2018-06-11T16:30:07.702Z,18.10
2018-06-11T16:32:36.033Z,18.00
2018-06-11T16:35:04.385Z,17.90
2018-06-11T16:37:32.730Z,18.00
2018-06-11T16:40:01.041Z,18.10
2018-06-11T16:42:29.386Z,18.20
2018-06-11T16:44:57.681Z,18.10
2018-06-11T16:47:25.998Z,18.00
2018-06-11T16:49:54.297Z,17.90
2018-06-11T16:52:22.608Z,18.00
2018-06-11T16:54:50.941Z,18.00
2018-06-11T16:57:19.276Z,17.90
2018-06-11T16:59:47.573Z,17.90
2018-06-11T17:02:15.909Z,17.90
2018-06-11T17:04:44.273Z,17.90
2018-06-11T17:07:12.582Z,17.80
2018-06-11T17:09:40.879Z,17.80
2018-06-11T17:12:09.213Z,17.80
2018-06-11T17:14:37.505Z,17.90
2018-06-11T17:17:05.849Z,17.90
2018-06-11T17:19:34.141Z,17.90
2018-06-11T17:22:02.489Z,18.00
2018-06-11T17:24:30.809Z,18.00
2018-06-11T17:26:59.115Z,18.10
2018-06-11T17:29:27.424Z,18.30
2018-06-11T17:31:55.767Z,18.20
2018-06-11T17:34:24.108Z,18.20
2018-06-11T17:36:52.395Z,18.30
2018-06-11T17:39:20.765Z,18.30
2018-06-11T17:41:49.099Z,18.30
2018-06-11T17:44:17.425Z,18.30
2018-06-11T17:46:45.728Z,18.30
2018-06-11T17:49:14.025Z,18.30
2018-06-11T17:51:42.344Z,18.30
2018-06-11T17:54:10.666Z,18.30
2018-06-11T17:56:38.982Z,18.20
2018-06-11T17:59:07.313Z,18.20
2018-06-11T18:01:35.680Z,18.20
2018-06-11T18:04:04.039Z,18.10
2018-06-11T18:06:32.323Z,18.00
2018-06-11T18:09:00.622Z,18.00
2018-06-11T18:11:28.938Z,18.00
2018-06-11T18:13:57.234Z,18.00
2018-06-11T18:16:25.609Z,18.00
2018-06-11T18:18:53.924Z,18.00
2018-06-11T18:21:22.226Z,18.00
2018-06-11T18:23:50.528Z,17.90
2018-06-11T18:26:19.790Z,17.90
2018-06-11T18:28:48.112Z,17.90
2018-06-11T18:31:16.417Z,17.90
2018-06-11T18:33:44.729Z,17.90
2018-06-11T18:36:13.085Z,18.00
2018-06-11T18:38:41.401Z,18.00
2018-06-11T18:41:09.696Z,18.00
2018-06-11T18:43:38.031Z,17.90
2018-06-11T18:46:06.350Z,17.90
2018-06-11T18:48:34.665Z,18.00
2018-06-11T18:51:02.970Z,18.00
2018-06-11T18:53:31.295Z,18.00
2018-06-11T18:55:59.609Z,18.00
2018-06-11T18:58:27.933Z,18.00
2018-06-11T19:00:56.241Z,18.00
2018-06-11T19:03:24.545Z,18.00
2018-06-11T19:05:52.870Z,18.10
2018-06-11T19:08:21.193Z,18.10
2018-06-11T19:10:49.494Z,18.00
2018-06-11T19:13:17.837Z,18.00
2018-06-11T19:15:46.149Z,18.00
2018-06-11T19:18:14.470Z,17.90
2018-06-11T19:20:42.794Z,17.90
2018-06-11T19:23:11.108Z,18.00
2018-06-11T19:25:39.424Z,18.00
2018-06-11T19:28:07.773Z,18.00
2018-06-11T19:30:36.174Z,18.00
2018-06-11T19:33:04.566Z,18.00
2018-06-11T19:35:32.875Z,18.00
2018-06-11T19:38:01.134Z,18.00
2018-06-11T19:40:29.721Z,18.00
2018-06-11T19:42:58.029Z,18.00
2018-06-11T19:45:26.354Z,17.90
2018-06-11T19:47:54.728Z,17.90
2018-06-11T19:50:23.030Z,17.90
2018-06-11T19:52:51.439Z,18.00
2018-06-11T19:55:19.820Z,18.00
2018-06-11T19:57:48.130Z,18.00
2018-06-11T20:00:16.476Z,18.00
2018-06-11T20:02:44.798Z,17.90
2018-06-11T20:05:13.250Z,17.90
2018-06-11T20:07:41.664Z,17.90
2018-06-11T20:10:10.099Z,17.90
2018-06-11T20:12:38.417Z,17.80
2018-06-11T20:15:06.761Z,17.80
2018-06-11T20:17:35.065Z,17.70
2018-06-11T20:20:03.421Z,17.70
2018-06-11T20:22:31.742Z,17.70
2018-06-11T20:25:00.062Z,17.60
2018-06-11T20:27:28.380Z,17.70
2018-06-11T20:29:56.705Z,17.70
2018-06-11T20:32:25.062Z,17.50
2018-06-11T20:34:53.417Z,17.50
2018-06-11T20:37:21.769Z,17.40
2018-06-11T20:39:50.110Z,17.30
2018-06-11T20:42:18.440Z,17.30
2018-06-11T20:44:46.822Z,17.30
2018-06-11T20:47:15.152Z,17.20
2018-06-11T20:49:43.448Z,17.20
2018-06-11T20:52:11.773Z,17.20
2018-06-11T20:54:40.090Z,17.10
2018-06-11T20:57:08.402Z,17.00
2018-06-11T20:59:36.931Z,17.10
2018-06-11T21:02:05.269Z,17.10
2018-06-11T21:04:33.576Z,17.00
2018-06-11T21:07:01.909Z,17.10
2018-06-11T21:09:30.222Z,17.10
2018-06-11T21:11:58.541Z,17.20
2018-06-11T21:14:26.853Z,17.20
2018-06-11T21:16:55.229Z,17.20
2018-06-11T21:19:23.525Z,17.30
2018-06-11T21:21:51.873Z,17.40
2018-06-11T21:24:20.180Z,17.40
2018-06-11T21:26:48.506Z,17.50
2018-06-11T21:29:17.013Z,17.50
2018-06-11T21:31:45.376Z,17.50
2018-06-11T21:34:13.794Z,17.40
2018-06-11T21:36:42.116Z,17.50
2018-06-11T21:39:10.453Z,17.50
2018-06-11T21:41:38.840Z,17.50
2018-06-11T21:44:07.180Z,17.50
2018-06-11T21:46:35.578Z,17.50
2018-06-11T21:49:03.921Z,17.50
2018-06-11T21:51:33.044Z,17.60
2018-06-11T21:54:01.414Z,17.60
2018-06-11T21:56:29.837Z,17.60
2018-06-11T21:58:58.134Z,17.60
2018-06-11T22:01:26.476Z,17.60
2018-06-11T22:03:54.855Z,17.60
2018-06-11T22:06:23.130Z,17.70
2018-06-11T22:08:51.461Z,17.70
2018-06-11T22:11:19.785Z,17.50
2018-06-11T22:13:48.105Z,17.40
2018-06-11T22:16:16.489Z,17.50
2018-06-11T22:18:44.804Z,17.40
2018-06-11T22:21:13.137Z,17.50
2018-06-11T22:23:41.437Z,17.50
2018-06-11T22:26:09.758Z,17.50
2018-06-11T22:28:38.936Z,17.40
2018-06-11T22:31:07.265Z,17.40
2018-06-11T22:33:35.585Z,17.40
2018-06-11T22:36:03.895Z,17.30
2018-06-11T22:38:32.229Z,17.30
2018-06-11T22:41:00.516Z,17.30
2018-06-11T22:43:28.925Z,17.30
2018-06-11T22:45:57.233Z,17.30
2018-06-11T22:48:25.558Z,17.40
2018-06-11T22:50:53.894Z,17.30
2018-06-11T22:53:22.221Z,17.30
2018-06-11T22:55:50.544Z,17.30
2018-06-11T22:58:18.860Z,17.20
2018-06-11T23:00:47.217Z,17.20
2018-06-11T23:03:15.560Z,17.30
2018-06-11T23:05:43.866Z,17.30
2018-06-11T23:08:12.222Z,17.30
2018-06-11T23:10:40.531Z,17.30
2018-06-11T23:13:08.873Z,17.40
2018-06-11T23:15:37.180Z,17.40
2018-06-11T23:18:05.606Z,17.50
2018-06-11T23:20:33.909Z,17.50
2018-06-11T23:23:02.226Z,17.50
2018-06-11T23:25:30.552Z,17.50
2018-06-11T23:27:58.917Z,17.40
2018-06-11T23:30:27.229Z,17.50
2018-06-11T23:32:55.570Z,17.60
2018-06-11T23:35:23.867Z,17.60
2018-06-11T23:37:52.194Z,17.50
2018-06-11T23:40:20.486Z,17.50
2018-06-11T23:42:48.833Z,17.50
2018-06-11T23:45:17.137Z,17.40
2018-06-11T23:47:45.464Z,17.50
2018-06-11T23:50:13.780Z,17.50
2018-06-11T23:52:42.101Z,17.60
2018-06-11T23:55:10.393Z,17.50
2018-06-11T23:57:38.784Z,17.50
